Time;durP1;ratioP1;P1;durP2;ratioP2;P2;SDS_P1;SDS_P2;PMS_P1;PMS_P2;Temp;Humidity;BMP_temperature;BMP_pressure;BME280_temperature;BME280_humidity;BME280_pressure;Samples;Min_cycle;Max_cycle;Signal;HPM_P1;HPM_P2
2021/01/27 00:00:37;;;;;;;4.70;4.20;;;;;;;-0.14;90.73;99030.22;5007126;28;103173;-73
2021/01/27 00:03:05;;;;;;;3.97;3.57;;;;;;;-0.06;90.90;99043.03;5009395;28;103259;-74
2021/01/27 00:05:34;;;;;;;4.13;3.43;;;;;;;0.04;90.71;99043.66;5007515;28;103773;-73
2021/01/27 00:08:01;;;;;;;3.87;3.33;;;;;;;0.10;90.00;99035.72;5008477;28;103798;-73
2021/01/27 00:10:30;;;;;;;6.57;4.17;;;;;;;0.02;89.86;99033.31;4996035;28;103103;-73
2021/01/27 00:12:57;;;;;;;5.63;3.40;;;;;;;0.09;90.27;99034.84;4987801;28;102972;-73
2021/01/27 00:15:27;;;;;;;4.83;3.20;;;;;;;-0.04;90.19;99031.72;5006085;28;104304;-73
2021/01/27 00:17:55;;;;;;;5.20;3.13;;;;;;;0.03;90.17;99034.16;5008806;28;103752;-73
2021/01/27 00:20:24;;;;;;;4.13;3.03;;;;;;;-0.01;90.39;99028.19;5008815;28;102950;-73
2021/01/27 00:22:51;;;;;;;3.80;3.20;;;;;;;0.04;89.97;99028.06;5008217;28;103255;-73
2021/01/27 00:25:22;;;;;;;3.93;3.50;;;;;;;-0.02;90.44;99024.72;5008004;28;108560;-73
2021/01/27 00:27:50;;;;;;;3.77;2.90;;;;;;;0.11;90.04;99014.91;5007790;28;104959;-73
2021/01/27 00:30:19;;;;;;;3.43;3.00;;;;;;;0.25;90.18;99007.59;5009112;28;102852;-73
2021/01/27 00:32:46;;;;;;;3.93;3.20;;;;;;;0.33;89.66;99000.44;5007743;28;102966;-73
2021/01/27 00:35:15;;;;;;;3.23;2.50;;;;;;;0.32;89.39;98998.75;5008621;28;103803;-73
2021/01/27 00:37:42;;;;;;;3.30;3.00;;;;;;;0.39;88.83;99005.47;4986522;28;106184;-73
2021/01/27 00:40:10;;;;;;;3.60;2.67;;;;;;;0.45;88.10;99009.69;5008381;28;102992;-73
2021/01/27 00:42:37;;;;;;;2.90;2.20;;;;;;;0.48;88.04;99000.03;5008790;28;103290;-73
2021/01/27 00:45:07;;;;;;;3.43;2.60;;;;;;;0.49;87.68;98999.13;5007168;28;103863;-73
2021/01/27 00:47:35;;;;;;;3.17;2.20;;;;;;;0.52;87.93;98996.47;5006224;28;103738;-73
2021/01/27 00:50:03;;;;;;;3.47;2.30;;;;;;;0.53;87.63;98998.13;5008178;28;102924;-73
2021/01/27 00:52:31;;;;;;;3.00;2.60;;;;;;;0.55;87.51;98980.78;5008536;28;102821;-73
2021/01/27 00:54:58;;;;;;;3.20;2.63;;;;;;;0.52;87.42;98980.00;5005452;28;106381;-73
2021/01/27 00:57:25;;;;;;;4.83;3.97;;;;;;;0.56;87.01;98976.44;5007856;28;103157;-73
2021/01/27 00:59:52;;;;;;;4.93;3.30;;;;;;;0.58;86.72;98970.28;5023889;28;102965;-73
2021/01/27 01:02:20;;;;;;;3.93;3.50;;;;;;;0.64;86.80;98971.00;5008251;28;103043;-73
2021/01/27 01:04:53;;;;;;;4.33;3.70;;;;;;;0.57;86.35;98965.97;4989882;28;105153;-73
2021/01/27 01:07:20;;;;;;;3.80;2.83;;;;;;;0.59;86.21;98966.78;5007573;28;108614;-73
2021/01/27 01:09:48;;;;;;;5.10;3.27;;;;;;;0.58;85.87;98969.44;5001286;28;103321;-73
2021/01/27 01:12:15;;;;;;;3.27;2.80;;;;;;;0.65;85.56;98957.94;4991679;28;102812;-74
2021/01/27 01:14:42;;;;;;;4.67;2.60;;;;;;;0.68;85.63;98957.88;5007943;28;103304;-73
2021/01/27 01:17:09;;;;;;;4.53;2.57;;;;;;;0.70;85.07;98963.91;5006231;28;106669;-73
2021/01/27 01:19:36;;;;;;;3.03;2.30;;;;;;;0.77;85.39;98959.34;5006997;28;103279;-73
2021/01/27 01:22:03;;;;;;;4.60;3.40;;;;;;;0.76;85.46;98960.25;5007964;28;103960;-73
2021/01/27 01:24:30;;;;;;;4.17;2.50;;;;;;;0.79;85.73;98966.22;5008017;28;104508;-74
2021/01/27 01:26:58;;;;;;;3.97;3.33;;;;;;;0.79;85.27;98967.94;5007879;28;103719;-74
2021/01/27 01:29:25;;;;;;;3.37;2.93;;;;;;;0.85;85.36;98975.59;5007995;28;102879;-74
2021/01/27 01:31:52;;;;;;;3.50;2.47;;;;;;;0.88;85.33;98968.56;5007763;28;102936;-74
2021/01/27 01:34:20;;;;;;;4.87;3.60;;;;;;;0.81;85.85;98950.56;5005463;28;104816;-73
2021/01/27 01:36:46;;;;;;;4.03;3.57;;;;;;;0.84;85.83;98942.69;5006672;28;103794;-73
2021/01/27 01:39:13;;;;;;;5.07;3.47;;;;;;;0.79;85.58;98944.53;4992458;28;102568;-73
2021/01/27 01:41:40;;;;;;;3.83;3.40;;;;;;;0.84;86.01;98940.91;5007882;28;102962;-73
2021/01/27 01:44:10;;;;;;;4.20;3.20;;;;;;;0.81;86.41;98940.16;4991493;28;103975;-73
2021/01/27 01:46:36;;;;;;;5.10;3.60;;;;;;;0.80;86.06;98933.25;4994031;28;105213;-73
2021/01/27 01:49:07;;;;;;;4.27;3.83;;;;;;;0.82;86.46;98926.25;5006055;28;103094;-73
2021/01/27 01:51:40;;;;;;;7.13;4.27;;;;;;;0.83;86.09;98927.97;5007848;28;102991;-73
2021/01/27 01:54:14;;;;;;;5.13;4.07;;;;;;;0.84;86.40;98927.06;5007800;28;103746;-73
2021/01/27 01:56:46;;;;;;;6.67;4.03;;;;;;;0.84;86.36;98924.47;5002855;28;104763;-73
2021/01/27 01:59:15;;;;;;;6.73;4.37;;;;;;;0.88;86.20;98919.13;5004745;28;102900;-73
2021/01/27 02:01:44;;;;;;;5.93;3.13;;;;;;;0.91;86.25;98924.22;5003194;28;102953;-73
2021/01/27 02:04:12;;;;;;;5.73;3.43;;;;;;;0.93;86.59;98925.03;5006279;28;105420;-73
2021/01/27 02:06:39;;;;;;;4.43;4.03;;;;;;;0.95;86.22;98918.06;5006893;28;103772;-73
2021/01/27 02:09:06;;;;;;;5.27;3.67;;;;;;;0.93;86.41;98909.44;5004866;28;103122;-74
2021/01/27 02:11:53;;;;;;;3.83;3.37;;;;;;;0.95;86.70;98896.38;4987200;28;102677;-73
2021/01/27 02:14:38;;;;;;;4.00;3.33;;;;;;;0.95;86.53;98901.59;5002139;28;103860;-73
2021/01/27 02:17:13;;;;;;;3.60;3.17;;;;;;;0.94;86.43;98895.53;4988825;28;102934;-73
2021/01/27 02:20:17;;;;;;;3.93;3.53;;;;;;;0.90;86.36;98891.31;5007449;28;102680;-73
2021/01/27 02:23:23;;;;;;;6.10;4.67;;;;;;;0.62;87.04;98890.41;5000615;28;102968;-73
2021/01/27 02:26:00;;;;;;;6.03;4.10;;;;;;;0.58;87.68;98896.63;5005755;28;104404;-73
2021/01/27 02:29:12;;;;;;;6.37;4.40;;;;;;;0.51;88.11;98900.28;5005357;28;104440;-73
2021/01/27 02:31:43;;;;;;;4.67;4.13;;;;;;;0.59;87.49;98896.56;4968985;28;102933;-74
2021/01/27 02:35:00;;;;;;;6.07;3.70;;;;;;;0.49;87.87;98895.16;5005710;28;104053;-74
2021/01/27 02:37:34;;;;;;;5.77;3.93;;;;;;;0.46;88.33;98887.44;4998309;28;103865;-73
2021/01/27 02:40:12;;;;;;;4.73;3.90;;;;;;;0.34;88.35;98895.56;4986077;28;105076;-73
2021/01/27 02:42:44;;;;;;;7.20;4.40;;;;;;;0.33;88.86;98900.81;4994314;28;103002;-73
2021/01/27 02:45:24;;;;;;;5.33;4.33;;;;;;;0.23;88.74;98888.97;5008604;28;102935;-73
2021/01/27 02:47:57;;;;;;;4.90;4.30;;;;;;;0.24;89.21;98886.34;5010378;28;103351;-73
2021/01/27 02:50:29;;;;;;;7.40;4.23;;;;;;;0.27;89.10;98882.81;5010207;28;103899;-73
2021/01/27 02:53:03;;;;;;;5.33;4.40;;;;;;;0.26;88.46;98884.53;5011106;28;103008;-73
2021/01/27 02:55:35;;;;;;;5.13;4.63;;;;;;;0.30;89.07;98893.13;5005926;28;103134;-74
2021/01/27 02:58:09;;;;;;;4.53;3.93;;;;;;;0.30;88.65;98883.56;5008712;28;103824;-73
2021/01/27 03:00:40;;;;;;;5.83;3.97;;;;;;;0.22;89.31;98888.13;5009739;28;103673;-73
2021/01/27 03:03:14;;;;;;;7.23;4.90;;;;;;;0.06;90.04;98881.66;5008273;28;103196;-73
2021/01/27 03:05:44;;;;;;;6.77;4.60;;;;;;;0.07;90.09;98888.56;5010200;28;102824;-73
2021/01/27 03:08:16;;;;;;;6.70;4.90;;;;;;;0.10;89.90;98879.81;5009689;28;103286;-73
2021/01/27 03:10:47;;;;;;;5.67;4.80;;;;;;;-0.01;90.31;98880.97;5003527;28;103239;-73
2021/01/27 03:13:14;;;;;;;6.37;4.30;;;;;;;-0.09;90.32;98876.88;5009837;28;102995;-73
2021/01/27 03:15:41;;;;;;;6.13;4.97;;;;;;;-0.10;90.00;98875.16;5010357;28;102758;-73
2021/01/27 03:18:15;;;;;;;6.57;4.33;;;;;;;-0.09;90.37;98876.88;5008247;28;106310;-73
2021/01/27 03:20:44;;;;;;;7.03;4.97;;;;;;;-0.12;90.69;98874.38;5009887;28;103766;-73
2021/01/27 03:23:18;;;;;;;6.40;3.93;;;;;;;0.05;90.71;98874.75;5010182;28;102560;-73
2021/01/27 03:25:53;;;;;;;5.63;5.13;;;;;;;-0.12;90.73;98876.97;5010420;28;102653;-73
2021/01/27 03:28:26;;;;;;;7.57;4.87;;;;;;;-0.06;90.69;98879.41;5008377;28;103912;-73
2021/01/27 03:30:53;;;;;;;5.57;4.70;;;;;;;-0.18;90.79;98874.53;5008846;28;106415;-73
2021/01/27 03:33:27;;;;;;;7.03;5.07;;;;;;;-0.24;91.92;98874.69;5007610;28;103365;-73
2021/01/27 03:35:58;;;;;;;7.80;4.83;;;;;;;-0.21;91.65;98865.06;5008057;28;103056;-73
2021/01/27 03:38:29;;;;;;;7.57;4.60;;;;;;;-0.20;91.51;98859.00;5007404;28;106691;-73
2021/01/27 03:41:03;;;;;;;6.30;4.40;;;;;;;-0.25;91.84;98873.81;5009467;28;103789;-73
2021/01/27 03:43:33;;;;;;;6.50;5.77;;;;;;;-0.24;92.34;98872.94;5009886;28;103015;-73
2021/01/27 03:46:05;;;;;;;5.83;4.50;;;;;;;-0.25;91.67;98871.22;5009661;28;102788;-73
2021/01/27 03:48:38;;;;;;;7.70;4.97;;;;;;;-0.17;91.65;98871.88;5008553;28;103254;-73
2021/01/27 03:51:07;;;;;;;5.57;4.93;;;;;;;-0.15;91.78;98864.06;5009376;28;104863;-73
2021/01/27 03:53:35;;;;;;;5.83;4.90;;;;;;;-0.02;91.46;98862.81;5008128;28;103029;-73
2021/01/27 03:56:10;;;;;;;6.60;5.07;;;;;;;-0.08;91.01;98860.38;5008924;28;102579;-73
2021/01/27 03:58:41;;;;;;;4.80;4.30;;;;;;;-0.01;90.97;98862.78;5007629;28;106146;-73
2021/01/27 04:01:11;;;;;;;6.33;4.77;;;;;;;0.05;91.00;98850.53;5008609;28;104967;-73
2021/01/27 04:03:39;;;;;;;6.37;4.77;;;;;;;-0.06;90.59;98851.66;5006808;28;102899;-73
2021/01/27 04:06:08;;;;;;;5.40;3.87;;;;;;;0.08;90.59;98848.69;5007565;28;102699;-73
2021/01/27 04:08:37;;;;;;;5.13;3.70;;;;;;;0.22;90.63;98846.56;5006465;28;103816;-73
2021/01/27 04:11:05;;;;;;;7.23;4.60;;;;;;;0.15;89.95;98849.34;5002560;28;104145;-73
2021/01/27 04:13:32;;;;;;;8.10;4.77;;;;;;;0.03;91.45;98837.56;5005533;28;102870;-73
2021/01/27 04:16:00;;;;;;;5.17;4.03;;;;;;;0.15;90.87;98829.44;5007402;28;103048;-76
2021/01/27 04:18:28;;;;;;;7.27;4.97;;;;;;;0.12;90.46;98829.50;5001700;28;104203;-77
2021/01/27 04:20:56;;;;;;;4.83;3.77;;;;;;;0.16;90.35;98820.75;5003523;28;107050;-73
2021/01/27 04:23:23;;;;;;;7.33;5.20;;;;;;;0.20;89.63;98822.34;5021518;28;102627;-73
2021/01/27 04:25:51;;;;;;;10.33;6.00;;;;;;;0.02;90.36;98816.84;5006745;28;102812;-73
2021/01/27 04:28:18;;;;;;;6.80;5.00;;;;;;;-0.02;90.98;98811.72;5002049;28;104997;-73
2021/01/27 04:30:45;;;;;;;7.20;5.23;;;;;;;0.08;91.29;98788.09;4987140;28;103558;-73
2021/01/27 04:33:12;;;;;;;6.17;5.13;;;;;;;0.18;90.57;98782.56;5006308;28;102666;-76
2021/01/27 04:35:40;;;;;;;5.53;4.27;;;;;;;0.25;90.54;98781.50;5004252;28;103020;-78
2021/01/27 04:38:07;;;;;;;9.20;5.03;;;;;;;0.27;89.98;98771.91;4992509;28;105555;-81
2021/01/27 04:40:40;;;;;;;6.10;4.23;;;;;;;0.32;90.74;98763.97;5001181;28;104397;-77
2021/01/27 04:43:19;;;;;;;10.27;5.80;;;;;;;0.36;90.21;98750.84;5000487;28;104035;-77
2021/01/27 04:45:53;;;;;;;6.77;5.73;;;;;;;0.29;90.61;98758.84;5002948;28;103214;-77
2021/01/27 04:48:30;;;;;;;7.07;5.63;;;;;;;0.30;90.97;98758.84;4984368;28;106721;-83
2021/01/27 04:51:01;;;;;;;15.33;6.67;;;;;;;0.30;91.67;98750.19;5004859;28;103730;-78
2021/01/27 04:53:41;;;;;;;6.67;5.93;;;;;;;0.23;92.31;98753.84;5003556;28;103035;-76
2021/01/27 04:56:33;;;;;;;6.87;5.63;;;;;;;0.34;91.74;98756.97;4992941;28;103245;-83
2021/01/27 04:59:11;;;;;;;6.20;5.10;;;;;;;0.41;91.44;98751.56;5004897;28;103737;-83
2021/01/27 05:02:09;;;;;;;5.27;4.67;;;;;;;0.37;91.32;98747.34;4978052;28;105909;-82
2021/01/27 05:04:51;;;;;;;10.00;5.80;;;;;;;0.46;91.29;98747.06;4995285;28;102960;-82
2021/01/27 05:07:23;;;;;;;9.53;6.23;;;;;;;0.49;91.29;98753.91;5017701;27;102638;-83
2021/01/27 05:09:56;;;;;;;7.43;5.50;;;;;;;0.48;91.20;98750.44;4999960;28;104489;-82
2021/01/27 05:12:27;;;;;;;8.73;5.40;;;;;;;0.49;90.88;98746.97;4989071;28;103775;-82
2021/01/27 05:14:55;;;;;;;5.77;4.00;;;;;;;0.59;90.63;98737.97;5006081;28;102906;-83
2021/01/27 05:17:22;;;;;;;6.83;4.23;;;;;;;0.64;90.61;98724.84;5006360;28;102876;-83
2021/01/27 05:19:49;;;;;;;6.07;4.37;;;;;;;0.69;90.57;98722.06;5004644;28;103205;-82
2021/01/27 05:22:19;;;;;;;6.50;4.53;;;;;;;0.69;90.55;98716.88;5004319;28;104086;-82
2021/01/27 05:24:48;;;;;;;6.10;4.30;;;;;;;0.70;90.40;98708.19;5006649;28;102840;-82
2021/01/27 05:27:20;;;;;;;6.83;4.63;;;;;;;0.73;90.29;98708.91;5003733;28;102924;-82
2021/01/27 05:29:53;;;;;;;6.43;4.43;;;;;;;0.78;90.08;98709.63;4998414;28;104472;-82
2021/01/27 05:32:23;;;;;;;4.40;3.70;;;;;;;0.79;89.74;98713.06;5004812;28;103859;-77
2021/01/27 05:34:52;;;;;;;6.13;4.63;;;;;;;0.77;89.26;98699.25;5003258;28;104910;-77
2021/01/27 05:37:34;;;;;;;4.73;4.23;;;;;;;0.75;89.48;98698.47;5000718;28;103334;-78
2021/01/27 05:40:09;;;;;;;7.33;5.07;;;;;;;0.75;89.09;98701.06;4997507;28;103159;-76
2021/01/27 05:42:39;;;;;;;5.33;4.40;;;;;;;0.79;89.15;98697.47;4994048;28;103319;-79
2021/01/27 05:45:31;;;;;;;7.87;4.40;;;;;;;0.83;89.15;98694.72;5003835;28;103238;-80
2021/01/27 05:48:15;;;;;;;6.43;5.20;;;;;;;0.79;89.16;98692.25;5002522;28;102958;-80
2021/01/27 05:50:44;;;;;;;6.53;5.07;;;;;;;0.77;88.92;98678.47;5004745;28;104076;-80
2021/01/27 05:53:19;;;;;;;7.40;4.53;;;;;;;0.75;89.63;98685.47;5003665;28;103355;-79
2021/01/27 05:56:02;;;;;;;6.50;4.50;;;;;;;0.71;89.39;98683.84;5002192;28;105472;-79
2021/01/27 05:58:32;;;;;;;9.40;5.20;;;;;;;0.62;89.29;98685.00;5002269;28;102603;-79
2021/01/27 06:01:19;;;;;;;9.07;5.47;;;;;;;0.62;88.50;98684.19;5003145;28;104552;-80
2021/01/27 06:03:55;;;;;;;5.77;4.53;;;;;;;0.73;88.25;98692.47;5007445;28;103211;-78
2021/01/27 06:06:22;;;;;;;6.30;4.77;;;;;;;0.74;88.23;98691.56;5021022;28;103306;-79
2021/01/27 06:08:56;;;;;;;5.90;5.10;;;;;;;0.74;87.79;98694.16;5001822;28;103455;-78
2021/01/27 06:11:24;;;;;;;6.40;4.87;;;;;;;0.76;87.90;98694.97;5002120;28;104014;-78
2021/01/27 06:14:06;;;;;;;6.57;4.77;;;;;;;0.73;88.43;98680.31;5003831;28;104670;-79
2021/01/27 06:16:40;;;;;;;5.30;4.80;;;;;;;0.79;87.59;98676.66;5004814;28;102985;-78
2021/01/27 06:19:14;;;;;;;7.40;5.07;;;;;;;0.83;88.05;98673.06;5003470;28;102931;-74
2021/01/27 06:22:24;;;;;;;6.37;4.60;;;;;;;0.89;87.73;98675.47;5002676;28;111096;-76
2021/01/27 06:25:03;;;;;;;6.27;5.10;;;;;;;0.86;87.42;98672.97;5000033;28;104138;-74
2021/01/27 06:27:52;;;;;;;5.83;4.77;;;;;;;0.82;87.64;98668.75;4985415;28;102784;-87
2021/01/27 06:30:23;;;;;;;7.43;5.17;;;;;;;0.86;87.67;98683.38;4997541;28;103149;-88
2021/01/27 06:33:09;;;;;;;8.40;4.87;;;;;;;0.86;86.89;98679.00;5000158;28;104292;-89
2021/01/27 06:35:51;;;;;;;5.80;4.00;;;;;;;0.95;86.58;98667.44;5004564;28;104276;-87
2021/01/27 06:38:35;;;;;;;7.80;5.30;;;;;;;1.01;86.72;98672.44;5020550;28;102800;-89
2021/01/27 06:41:22;;;;;;;6.53;4.27;;;;;;;1.04;86.76;98669.72;5000680;28;103215;-89
2021/01/27 06:44:12;;;;;;;4.63;3.57;;;;;;;1.02;86.65;98669.78;4986562;28;104356;-89
2021/01/27 06:46:58;;;;;;;5.47;3.63;;;;;;;1.04;86.43;98677.50;5003935;28;103091;-80
2021/01/27 06:49:58;;;;;;;6.00;4.37;;;;;;;1.08;86.43;98673.91;5001996;28;103105;-79
2021/01/27 06:52:42;;;;;;;4.90;3.70;;;;;;;1.07;86.27;98662.66;5019448;28;103046;-78
2021/01/27 06:55:22;;;;;;;4.57;3.37;;;;;;;1.08;86.37;98669.56;4988756;28;103446;-79
2021/01/27 06:58:15;;;;;;;4.77;3.33;;;;;;;1.11;86.37;98663.41;5002349;28;107559;-79
2021/01/27 07:00:59;;;;;;;5.03;3.47;;;;;;;1.16;86.25;98670.16;5005552;28;102661;-78
2021/01/27 07:04:00;;;;;;;4.87;3.57;;;;;;;1.16;85.31;98682.31;5006418;28;102629;-78
2021/01/27 07:07:00;;;;;;;4.13;3.40;;;;;;;1.15;84.51;98678.03;5001472;28;106304;-78
2021/01/27 07:10:02;;;;;;;3.53;3.07;;;;;;;1.21;84.83;98683.00;4986502;28;104696;-79
2021/01/27 07:12:36;;;;;;;5.57;2.80;;;;;;;1.24;84.71;98675.06;4987152;28;102951;-78
2021/01/27 07:15:31;;;;;;;7.67;3.10;;;;;;;0.95;84.85;98683.06;4989535;28;103014;-81
2021/01/27 07:18:47;;;;;;;4.83;3.67;;;;;;;0.90;85.75;98684.97;5005825;28;104089;-78
2021/01/27 07:21:21;;;;;;;5.23;3.83;;;;;;;0.99;85.81;98684.63;4959573;28;107619;-77
2021/01/27 07:23:58;;;;;;;6.83;4.47;;;;;;;0.95;85.93;98693.47;4999555;28;104104;-78
2021/01/27 07:26:35;;;;;;;5.03;4.07;;;;;;;0.98;85.43;98693.38;4998830;28;103595;-80
2021/01/27 07:29:10;;;;;;;5.30;3.73;;;;;;;1.03;85.54;98702.72;4993222;28;103847;-78
2021/01/27 07:31:42;;;;;;;6.33;4.33;;;;;;;1.05;85.27;98705.25;4998944;28;108146;-78
2021/01/27 07:34:27;;;;;;;8.60;4.23;;;;;;;1.03;85.78;98704.47;4989702;28;103539;-77
2021/01/27 07:37:07;;;;;;;4.73;3.70;;;;;;;1.14;87.30;98705.78;5001647;28;103049;-78
2021/01/27 07:39:44;;;;;;;3.63;3.13;;;;;;;1.23;86.62;98708.97;5006050;28;103996;-78
2021/01/27 07:42:19;;;;;;;6.83;4.33;;;;;;;1.09;86.80;98714.66;5022901;28;103188;-78
2021/01/27 07:44:51;;;;;;;7.10;3.93;;;;;;;1.16;87.04;98705.72;5003280;28;103211;-78
2021/01/27 07:47:33;;;;;;;4.73;3.43;;;;;;;1.26;86.33;98701.91;5002598;28;103050;-80
2021/01/27 07:50:00;;;;;;;5.73;3.37;;;;;;;1.34;86.24;98702.50;5003008;28;104550;-77
2021/01/27 07:52:34;;;;;;;6.67;4.50;;;;;;;1.41;86.40;98703.09;5002530;28;107207;-78
2021/01/27 07:55:12;;;;;;;6.80;4.53;;;;;;;1.39;85.81;98705.78;5006679;28;102963;-78
2021/01/27 07:57:56;;;;;;;4.70;3.63;;;;;;;1.47;85.91;98714.16;5009703;28;102763;-78
2021/01/27 08:00:29;;;;;;;5.23;4.17;;;;;;;1.47;85.72;98723.72;5013079;28;105326;-77
2021/01/27 08:03:10;;;;;;;3.80;3.00;;;;;;;1.44;85.06;98713.41;5009176;28;107052;-79
2021/01/27 08:05:41;;;;;;;3.17;2.40;;;;;;;1.50;85.20;98721.00;5006965;28;103141;-79
2021/01/27 08:08:12;;;;;;;4.27;2.17;;;;;;;1.42;85.49;98721.28;5006789;28;103094;-79
2021/01/27 08:10:41;;;;;;;2.87;1.90;;;;;;;1.45;86.01;98721.19;5002556;28;105044;-79
2021/01/27 08:13:19;;;;;;;2.80;1.80;;;;;;;1.53;85.81;98732.19;5003803;28;105896;-79
2021/01/27 08:16:03;;;;;;;5.07;2.90;;;;;;;1.49;86.68;98727.13;5004391;28;103007;-78
2021/01/27 08:18:31;;;;;;;2.80;2.57;;;;;;;1.47;86.66;98737.59;5021441;28;103236;-80
2021/01/27 08:21:28;;;;;;;3.30;2.57;;;;;;;1.47;87.36;98735.00;5006019;28;104000;-80
2021/01/27 08:23:56;;;;;;;2.73;2.43;;;;;;;1.37;88.07;98732.78;4961138;28;104126;-80
2021/01/27 08:26:52;;;;;;;4.67;2.80;;;;;;;1.33;89.08;98742.44;4987099;28;102916;-81
2021/01/27 08:29:29;;;;;;;2.97;2.30;;;;;;;1.29;90.35;98740.84;4999964;28;102875;-80
2021/01/27 08:32:23;;;;;;;2.53;2.10;;;;;;;1.36;91.58;98746.69;5001134;28;104274;-80
2021/01/27 08:34:52;;;;;;;2.27;1.90;;;;;;;1.52;91.20;98733.06;5000177;28;107231;-78
2021/01/27 08:37:23;;;;;;;2.10;1.73;;;;;;;1.57;91.19;98725.94;5002777;28;103022;-82
2021/01/27 08:40:18;;;;;;;3.00;2.10;;;;;;;1.66;90.54;98723.00;4982036;28;103579;-83
2021/01/27 08:42:50;;;;;;;3.23;1.90;;;;;;;1.71;91.05;98728.91;5004160;28;103995;-83
2021/01/27 08:45:27;;;;;;;2.83;2.17;;;;;;;1.63;91.47;98740.50;4975950;28;106162;-82
2021/01/27 08:47:59;;;;;;;2.23;1.70;;;;;;;1.61;91.52;98737.97;4984288;28;105551;-82
2021/01/27 08:50:42;;;;;;;1.73;1.63;;;;;;;1.71;91.71;98734.09;4999492;28;103203;-83
2021/01/27 08:53:13;;;;;;;2.80;1.97;;;;;;;1.67;92.21;98729.94;4979135;28;107091;-82
2021/01/27 08:55:59;;;;;;;5.13;2.00;;;;;;;1.62;91.87;98718.84;5017766;28;103863;-83
2021/01/27 08:58:33;;;;;;;2.90;2.33;;;;;;;1.64;92.06;98723.97;5001869;28;102877;-82
2021/01/27 09:01:05;;;;;;;2.23;1.80;;;;;;;1.62;92.50;98726.66;5012658;28;103303;-82
2021/01/27 09:03:59;;;;;;;3.47;2.17;;;;;;;1.67;92.82;98721.25;5000658;28;103938;-82
2021/01/27 09:06:42;;;;;;;3.03;2.30;;;;;;;1.52;92.82;98712.25;5000463;28;103732;-82
2021/01/27 09:09:13;;;;;;;4.33;2.10;;;;;;;1.59;92.72;98724.16;4996432;28;103402;-83
2021/01/27 09:11:42;;;;;;;2.63;2.07;;;;;;;1.60;92.25;98723.22;5017308;28;102846;-82
2021/01/27 09:14:12;;;;;;;3.17;2.60;;;;;;;1.63;92.65;98723.13;5002795;28;109432;-82
2021/01/27 09:16:42;;;;;;;5.53;2.77;;;;;;;1.44;93.65;98719.47;5003359;28;106819;-81
2021/01/27 09:19:15;;;;;;;2.77;2.33;;;;;;;1.57;93.62;98714.69;5003618;28;103136;-81
2021/01/27 09:21:43;;;;;;;5.00;2.73;;;;;;;1.57;94.17;98718.13;5004052;28;103301;-74
2021/01/27 09:24:24;;;;;;;3.00;2.60;;;;;;;1.72;93.63;98709.78;5007597;28;103938;-79
2021/01/27 09:26:53;;;;;;;6.57;2.87;;;;;;;1.61;94.59;98717.13;5005581;28;104331;-79
2021/01/27 09:29:24;;;;;;;2.97;2.40;;;;;;;1.72;94.02;98709.78;5004596;28;103414;-79
2021/01/27 09:31:54;;;;;;;5.87;2.37;;;;;;;1.67;93.96;98706.50;5021580;28;102666;-79
2021/01/27 09:34:26;;;;;;;2.27;1.97;;;;;;;1.73;93.97;98700.22;5018337;28;105370;-77
2021/01/27 09:36:58;;;;;;;2.77;2.40;;;;;;;1.49;95.10;98703.69;5003298;28;103561;-75
2021/01/27 09:39:31;;;;;;;3.23;2.20;;;;;;;1.58;95.10;98701.59;4999996;28;103071;-75
2021/01/27 09:42:01;;;;;;;3.00;2.47;;;;;;;1.49;95.44;98701.94;4999197;28;103060;-75
2021/01/27 09:44:36;;;;;;;3.37;2.10;;;;;;;1.46;96.06;98701.22;5000354;28;104046;-75
2021/01/27 09:47:11;;;;;;;2.43;2.20;;;;;;;1.38;95.93;98698.88;4998329;28;105597;-75
2021/01/27 09:49:41;;;;;;;2.90;2.60;;;;;;;1.30;96.57;98690.47;4996914;28;103060;-76
2021/01/27 09:52:11;;;;;;;4.37;2.60;;;;;;;1.16;97.05;98692.72;5008585;28;103144;-75
2021/01/27 09:54:42;;;;;;;3.07;2.40;;;;;;;1.20;96.92;98688.25;4990041;28;103776;-76
2021/01/27 09:57:12;;;;;;;3.03;2.73;;;;;;;1.26;96.76;98686.31;4994656;28;104996;-75
2021/01/27 09:59:40;;;;;;;4.40;3.00;;;;;;;1.15;96.32;98681.44;4995677;28;102903;-81
2021/01/27 10:02:12;;;;;;;3.67;3.10;;;;;;;1.05;97.18;98679.22;4998445;28;103428;-81
2021/01/27 10:04:41;;;;;;;4.00;3.03;;;;;;;1.06;97.43;98675.72;5005810;28;104378;-80
2021/01/27 10:07:15;;;;;;;5.17;3.23;;;;;;;1.06;97.38;98668.78;4996018;28;104242;-78
2021/01/27 10:09:51;;;;;;;6.60;3.07;;;;;;;1.08;97.17;98663.50;4987412;28;103067;-77
2021/01/27 10:12:23;;;;;;;3.93;3.47;;;;;;;1.12;97.02;98665.13;5012967;28;103211;-78
2021/01/27 10:14:59;;;;;;;6.70;4.13;;;;;;;1.03;98.49;98662.81;5007787;28;103927;-79
2021/01/27 10:17:31;;;;;;;8.43;3.63;;;;;;;1.05;99.13;98645.41;5001637;28;105578;-77
2021/01/27 10:20:07;;;;;;;3.57;3.23;;;;;;;1.15;99.14;98650.22;4998396;28;103463;-77
2021/01/27 10:22:39;;;;;;;4.83;3.33;;;;;;;1.07;99.14;98640.97;5000184;28;103458;-78
2021/01/27 10:25:28;;;;;;;4.43;3.50;;;;;;;1.08;98.98;98637.50;5002419;28;104351;-79
2021/01/27 10:28:21;;;;;;;4.63;3.03;;;;;;;1.13;97.76;98649.44;5014933;28;104559;-77
2021/01/27 10:30:54;;;;;;;3.87;2.67;;;;;;;1.47;97.48;98636.06;5001349;28;103018;-78
2021/01/27 10:33:51;;;;;;;5.90;2.77;;;;;;;1.63;96.18;98636.31;5002657;28;103365;-77
2021/01/27 10:36:30;;;;;;;2.47;2.27;;;;;;;1.77;96.71;98634.91;4973465;28;105262;-78
2021/01/27 10:39:21;;;;;;;6.60;3.70;;;;;;;1.38;97.52;98625.97;4998970;28;103862;-76
2021/01/27 10:41:52;;;;;;;3.40;2.90;;;;;;;1.41;98.18;98631.06;4988203;28;102912;-76
2021/01/27 10:44:22;;;;;;;6.30;2.97;;;;;;;1.53;96.98;98629.78;4996090;28;103246;-76
2021/01/27 10:46:52;;;;;;;4.23;2.67;;;;;;;1.58;96.45;98628.69;5001524;28;104198;-76
2021/01/27 10:49:21;;;;;;;4.50;3.10;;;;;;;1.56;95.94;98630.50;4996857;28;103852;-78
2021/01/27 10:51:52;;;;;;;4.20;2.67;;;;;;;1.48;97.02;98629.09;4999839;28;103089;-78
2021/01/27 10:54:23;;;;;;;3.30;3.00;;;;;;;1.53;96.92;98625.41;5001392;28;102974;-76
2021/01/27 10:56:53;;;;;;;3.43;3.13;;;;;;;1.41;96.50;98619.81;5001189;28;104185;-81
2021/01/27 10:59:24;;;;;;;3.47;2.27;;;;;;;1.45;96.93;98635.28;4999131;28;106369;-78
2021/01/27 11:01:52;;;;;;;4.33;2.40;;;;;;;1.54;95.93;98636.69;4983017;28;103290;-78
2021/01/27 11:04:20;;;;;;;3.47;2.57;;;;;;;1.54;95.55;98637.53;4999652;28;103307;-77
2021/01/27 11:06:48;;;;;;;2.97;2.40;;;;;;;1.62;95.85;98651.13;5007613;28;103483;-80
2021/01/27 11:09:15;;;;;;;2.80;2.53;;;;;;;1.70;95.89;98646.47;5003772;28;103784;-82
2021/01/27 11:11:43;;;;;;;4.77;2.70;;;;;;;1.57;95.60;98626.97;5006070;28;102704;-82
2021/01/27 11:14:11;;;;;;;2.13;1.93;;;;;;;1.75;95.60;98625.44;4989469;28;103145;-82
2021/01/27 11:16:38;;;;;;;3.47;2.17;;;;;;;1.75;93.97;98636.72;5007955;28;103854;-81
2021/01/27 11:19:06;;;;;;;3.97;2.30;;;;;;;1.83;94.37;98622.53;5007194;28;103786;-85
2021/01/27 11:21:34;;;;;;;3.40;2.30;;;;;;;1.96;94.39;98621.19;4986542;28;103397;-86
2021/01/27 11:24:02;;;;;;;3.13;2.30;;;;;;;2.01;94.17;98627.06;5002142;28;102749;-89
2021/01/27 11:26:29;;;;;;;4.30;2.00;;;;;;;1.92;93.88;98622.19;5004731;28;103834;-90
2021/01/27 11:29:00;;;;;;;2.20;2.00;;;;;;;1.77;94.50;98622.81;5007929;28;104549;-89
2021/01/27 11:31:28;;;;;;;4.93;1.97;;;;;;;1.84;93.68;98626.84;5023866;28;103080;-90
2021/01/27 11:33:57;;;;;;;2.40;2.20;;;;;;;2.06;93.47;98614.69;5003289;28;103165;-89
2021/01/27 11:36:25;;;;;;;5.00;1.90;;;;;;;1.96;93.00;98602.94;5021462;27;106226;-90
2021/01/27 11:38:53;;;;;;;4.10;2.50;;;;;;;1.90;93.84;98597.97;5004695;28;103983;-79
2021/01/27 11:41:23;;;;;;;3.30;2.33;;;;;;;1.76;94.37;98595.91;4999300;28;103541;-76
2021/01/27 11:43:50;;;;;;;3.83;2.20;;;;;;;1.82;94.90;98592.22;4993772;28;103319;-75
2021/01/27 11:46:19;;;;;;;4.13;2.50;;;;;;;1.96;93.66;98582.09;5004088;28;103297;-74
2021/01/27 11:48:47;;;;;;;3.57;2.33;;;;;;;2.03;93.17;98567.91;5001948;28;104226;-75
2021/01/27 11:51:15;;;;;;;5.07;2.30;;;;;;;2.00;92.82;98563.66;4997310;28;103083;-74
2021/01/27 11:53:43;;;;;;;1.87;1.70;;;;;;;1.95;91.85;98564.75;5003822;28;103573;-74
2021/01/27 11:56:12;;;;;;;2.67;2.00;;;;;;;2.01;92.40;98559.31;5006360;28;104662;-75
2021/01/27 11:58:40;;;;;;;2.20;1.80;;;;;;;1.80;91.93;98565.38;5005831;28;105356;-80
2021/01/27 12:01:08;;;;;;;2.30;2.10;;;;;;;1.80;92.78;98563.59;4980431;28;105491;-85
2021/01/27 12:03:36;;;;;;;2.13;1.40;;;;;;;1.98;91.78;98575.06;4985411;28;102969;-85